createdAt,value
2023-03-29T00:02:07.862Z,-0.82
2023-03-29T00:04:35.141Z,-0.82
2023-03-29T00:07:04.422Z,-0.85
2023-03-29T00:09:33.230Z,-0.85
2023-03-29T00:12:01.422Z,-0.88
2023-03-29T00:14:31.137Z,-0.89
2023-03-29T00:16:58.615Z,-0.90
2023-03-29T00:19:25.876Z,-0.92
2023-03-29T00:21:53.077Z,-0.94
2023-03-29T00:24:21.234Z,-0.88
2023-03-29T00:26:48.534Z,-0.87
2023-03-29T00:29:16.120Z,-0.88
2023-03-29T00:31:45.992Z,-0.89
2023-03-29T00:34:13.377Z,-0.89
2023-03-29T00:36:40.635Z,-0.91
2023-03-29T00:39:07.689Z,-0.89
2023-03-29T00:41:34.880Z,-0.90
2023-03-29T00:44:03.508Z,-0.89
2023-03-29T00:46:31.637Z,-0.93
2023-03-29T00:49:03.856Z,-0.89
2023-03-29T00:51:34.276Z,-0.90
2023-03-29T00:54:02.535Z,-0.92
2023-03-29T00:56:31.646Z,-0.95
2023-03-29T00:59:01.451Z,-0.89
2023-03-29T01:01:34.142Z,-0.89
2023-03-29T01:04:07.116Z,-0.93
2023-03-29T01:06:35.409Z,-0.96
2023-03-29T01:09:04.944Z,-0.97
2023-03-29T01:11:36.368Z,-0.93
2023-03-29T01:14:05.595Z,-1.02
2023-03-29T01:16:35.306Z,-1.01
2023-03-29T01:19:04.656Z,-1.04
2023-03-29T01:21:34.275Z,-1.05
2023-03-29T01:24:18.250Z,-1.01
2023-03-29T01:26:55.515Z,-1.07
2023-03-29T01:29:26.508Z,-1.09
2023-03-29T01:34:30.306Z,-1.11
2023-03-29T01:37:01.098Z,-1.11
2023-03-29T01:39:28.057Z,-1.11
2023-03-29T01:42:02.194Z,-1.14
2023-03-29T01:44:32.198Z,-1.16
2023-03-29T01:47:04.642Z,-1.19
2023-03-29T01:49:34.676Z,-1.19
2023-03-29T01:52:05.569Z,-1.17
2023-03-29T01:54:35.378Z,-1.16
2023-03-29T01:57:06.004Z,-1.19
2023-03-29T01:59:37.278Z,-1.22
2023-03-29T02:02:05.788Z,-1.22
2023-03-29T02:04:34.731Z,-1.14
2023-03-29T02:07:03.486Z,-1.14
2023-03-29T02:09:32.169Z,-1.14
2023-03-29T02:12:00.845Z,-1.11
2023-03-29T02:14:27.957Z,-1.11
2023-03-29T02:16:56.390Z,-1.08
2023-03-29T02:19:25.213Z,-1.11
2023-03-29T02:21:57.832Z,-1.14
2023-03-29T02:24:26.412Z,-1.16
2023-03-29T02:26:53.676Z,-1.16
2023-03-29T02:29:20.704Z,-1.13
2023-03-29T02:31:51.934Z,-1.12
2023-03-29T02:34:22.493Z,-1.11
2023-03-29T02:36:52.007Z,-1.16
2023-03-29T02:39:20.378Z,-1.18
2023-03-29T02:41:49.739Z,-1.15
2023-03-29T02:44:19.494Z,-1.17
2023-03-29T02:46:48.889Z,-1.16
2023-03-29T02:49:16.146Z,-1.16
2023-03-29T02:51:45.243Z,-1.18
2023-03-29T02:54:14.012Z,-1.20
2023-03-29T02:56:43.527Z,-1.23
2023-03-29T02:59:12.174Z,-1.21
2023-03-29T03:01:44.905Z,-1.26
2023-03-29T03:04:13.366Z,-1.27
2023-03-29T03:06:40.624Z,-1.29
2023-03-29T03:09:11.426Z,-1.28
2023-03-29T03:11:41.781Z,-1.32
2023-03-29T03:14:08.906Z,-1.33
2023-03-29T03:16:37.120Z,-1.35
2023-03-29T03:19:04.482Z,-1.33
2023-03-29T03:21:31.478Z,-1.36
2023-03-29T03:24:00.121Z,-1.40
2023-03-29T03:26:31.583Z,-1.40
2023-03-29T03:28:58.614Z,-1.40
2023-03-29T03:31:44.712Z,-1.40
2023-03-29T03:34:31.878Z,-1.43
2023-03-29T03:37:01.922Z,-1.44
2023-03-29T03:39:32.740Z,-1.43
2023-03-29T03:42:02.738Z,-1.40
2023-03-29T03:44:29.691Z,-1.37
2023-03-29T03:47:14.842Z,-1.43
2023-03-29T03:49:42.850Z,-1.42
2023-03-29T03:52:09.938Z,-1.39
2023-03-29T03:54:36.899Z,-1.38
2023-03-29T03:57:24.732Z,-1.40
2023-03-29T03:59:53.178Z,-1.40
2023-03-29T04:02:38.813Z,-1.39
2023-03-29T04:05:06.479Z,-1.38
2023-03-29T04:07:36.848Z,-1.41
2023-03-29T04:10:22.736Z,-1.38
2023-03-29T04:13:12.131Z,-1.36
2023-03-29T04:16:01.422Z,-1.42
2023-03-29T04:18:29.345Z,-1.41
2023-03-29T04:20:59.010Z,-1.38
2023-03-29T04:23:27.560Z,-1.35
2023-03-29T04:25:55.774Z,-1.36
2023-03-29T04:28:42.969Z,-1.29
2023-03-29T04:31:15.369Z,-1.26
2023-03-29T04:34:17.811Z,-1.32
2023-03-29T04:36:46.230Z,-1.28
2023-03-29T04:39:19.364Z,-1.24
2023-03-29T04:41:51.294Z,-1.24
2023-03-29T04:44:27.005Z,-1.17
2023-03-29T04:46:56.869Z,-1.13
2023-03-29T04:49:25.990Z,-1.14
2023-03-29T04:51:54.479Z,-1.15
2023-03-29T04:54:25.217Z,-1.15
2023-03-29T04:57:05.764Z,-1.11
2023-03-29T04:59:45.651Z,-1.08
2023-03-29T05:02:38.923Z,-1.07
2023-03-29T05:05:06.423Z,-1.05
2023-03-29T05:07:33.537Z,-0.99
2023-03-29T05:10:00.907Z,-0.93
2023-03-29T05:12:28.129Z,-0.93
2023-03-29T05:14:58.710Z,-0.93
2023-03-29T05:17:27.575Z,-0.91
2023-03-29T05:19:59.785Z,-0.81
2023-03-29T05:22:27.092Z,-0.75
2023-03-29T05:24:54.157Z,-0.68
2023-03-29T05:27:23.032Z,-0.73
2023-03-29T05:30:05.284Z,-0.70
2023-03-29T05:32:49.293Z,-0.67
2023-03-29T05:35:20.099Z,-0.62
2023-03-29T05:37:47.404Z,-0.50
2023-03-29T05:40:14.551Z,-0.49
2023-03-29T05:43:02.694Z,-0.40
2023-03-29T05:45:32.595Z,-0.39
2023-03-29T05:47:59.836Z,-0.29
2023-03-29T05:50:26.906Z,-0.07
2023-03-29T05:52:56.049Z,0.14
2023-03-29T05:55:23.814Z,0.14
2023-03-29T05:57:50.811Z,0.15
2023-03-29T06:00:25.798Z,0.17
2023-03-29T06:03:17.566Z,0.26
2023-03-29T06:05:49.970Z,0.31
2023-03-29T06:08:17.283Z,0.30
2023-03-29T06:11:09.098Z,0.29
2023-03-29T06:13:54.863Z,0.39
2023-03-29T06:16:22.601Z,0.42
2023-03-29T06:18:50.983Z,0.54
2023-03-29T06:21:18.015Z,0.58
2023-03-29T06:23:45.385Z,0.60
2023-03-29T06:26:13.022Z,0.57
2023-03-29T06:28:40.608Z,0.56
2023-03-29T06:31:10.271Z,0.54
2023-03-29T06:33:40.775Z,0.58
2023-03-29T06:36:20.207Z,0.55
2023-03-29T06:38:47.375Z,0.66
2023-03-29T06:41:33.068Z,0.67
2023-03-29T06:44:22.915Z,0.61
2023-03-29T06:47:00.294Z,0.68
2023-03-29T06:49:28.397Z,0.73
2023-03-29T06:52:06.730Z,0.72
2023-03-29T06:54:33.880Z,0.73
2023-03-29T06:57:04.749Z,0.64
2023-03-29T06:59:35.064Z,0.72
2023-03-29T07:02:20.832Z,0.84
2023-03-29T07:04:54.562Z,1.00
2023-03-29T07:07:43.988Z,1.20
2023-03-29T07:10:26.373Z,1.34
2023-03-29T07:13:26.412Z,1.43
2023-03-29T07:15:55.459Z,1.48
2023-03-29T07:18:32.528Z,1.59
2023-03-29T07:20:59.913Z,1.74
2023-03-29T07:23:28.249Z,1.93
2023-03-29T07:25:55.759Z,1.89
2023-03-29T07:28:22.842Z,1.81
2023-03-29T07:30:51.590Z,1.98
2023-03-29T07:33:21.371Z,1.96
2023-03-29T07:35:51.637Z,2.14
2023-03-29T07:38:18.842Z,2.29
2023-03-29T07:40:51.808Z,2.53
2023-03-29T07:43:36.883Z,2.55
2023-03-29T07:46:05.120Z,2.63
2023-03-29T07:48:36.503Z,2.79
2023-03-29T07:51:07.251Z,2.72
2023-03-29T07:53:43.073Z,2.69
2023-03-29T07:56:34.561Z,2.83
2023-03-29T07:59:11.273Z,3.01
2023-03-29T08:01:41.055Z,3.04
2023-03-29T08:04:11.252Z,3.16
2023-03-29T08:07:01.580Z,3.14
2023-03-29T08:09:46.155Z,3.16
2023-03-29T08:12:14.501Z,3.31
2023-03-29T08:14:41.566Z,3.50
2023-03-29T08:17:19.435Z,3.72
2023-03-29T08:19:51.289Z,3.90
2023-03-29T08:22:22.323Z,4.00
2023-03-29T08:25:16.665Z,4.03
2023-03-29T08:27:49.585Z,4.12
2023-03-29T08:30:25.787Z,4.33
2023-03-29T08:32:55.270Z,4.60
2023-03-29T08:35:22.957Z,4.79
2023-03-29T08:38:02.469Z,4.93
2023-03-29T08:40:32.414Z,4.98
2023-03-29T08:43:30.378Z,5.00
2023-03-29T08:46:22.278Z,5.06
2023-03-29T08:48:51.952Z,5.03
2023-03-29T08:51:24.799Z,5.09
2023-03-29T08:53:54.283Z,5.05
2023-03-29T08:56:36.610Z,5.17
2023-03-29T08:59:27.007Z,5.28
2023-03-29T09:01:56.055Z,5.35
2023-03-29T09:04:25.415Z,5.64
2023-03-29T09:06:59.572Z,5.83
2023-03-29T09:09:34.251Z,6.12
2023-03-29T09:12:26.072Z,6.42
2023-03-29T09:15:04.769Z,6.60
2023-03-29T09:17:41.632Z,6.58
2023-03-29T09:20:21.825Z,6.61
2023-03-29T09:22:55.182Z,6.83
2023-03-29T09:25:25.338Z,6.97
2023-03-29T09:27:59.027Z,7.09
2023-03-29T09:30:41.587Z,7.05
2023-03-29T09:33:13.987Z,7.22
2023-03-29T09:36:05.300Z,7.42
2023-03-29T09:38:35.290Z,7.06
2023-03-29T09:41:18.140Z,7.19
2023-03-29T09:43:45.341Z,7.38
2023-03-29T09:46:21.780Z,7.36
2023-03-29T09:48:50.039Z,7.41
2023-03-29T09:51:18.303Z,7.66
2023-03-29T09:53:47.022Z,7.78
2023-03-29T09:56:29.300Z,7.85
2023-03-29T09:59:07.306Z,8.04
2023-03-29T10:01:38.899Z,7.97
2023-03-29T10:04:09.252Z,8.07
2023-03-29T10:06:43.405Z,8.11
2023-03-29T10:09:16.430Z,8.27
2023-03-29T10:11:47.816Z,8.36
2023-03-29T10:14:17.700Z,8.55
2023-03-29T10:16:46.613Z,8.62
2023-03-29T10:19:19.330Z,8.67
2023-03-29T10:21:49.026Z,8.80
2023-03-29T10:24:19.152Z,8.86
2023-03-29T10:26:47.133Z,8.94
2023-03-29T10:29:14.379Z,8.99
2023-03-29T10:31:43.176Z,8.96
2023-03-29T10:34:15.255Z,9.11
2023-03-29T10:36:44.961Z,9.03
2023-03-29T10:39:14.847Z,9.19
2023-03-29T10:41:42.788Z,9.31
2023-03-29T10:44:25.301Z,9.44
2023-03-29T10:46:52.329Z,9.65
2023-03-29T10:49:22.306Z,9.82
2023-03-29T10:51:50.798Z,9.92
2023-03-29T10:54:20.412Z,9.88
2023-03-29T10:56:50.816Z,10.14
2023-03-29T10:59:29.977Z,10.41
2023-03-29T11:02:29.789Z,10.55
2023-03-29T11:05:07.074Z,10.48
2023-03-29T11:07:35.700Z,10.23
2023-03-29T11:10:10.625Z,10.31
2023-03-29T11:12:42.025Z,10.46
2023-03-29T11:15:20.504Z,10.50
2023-03-29T11:17:56.122Z,10.32
2023-03-29T11:20:30.512Z,10.25
2023-03-29T11:23:06.238Z,10.39
2023-03-29T11:25:42.158Z,10.40
2023-03-29T11:28:14.213Z,10.29
2023-03-29T11:30:46.215Z,10.49
2023-03-29T11:33:22.282Z,10.79
2023-03-29T11:35:54.706Z,11.27
2023-03-29T11:38:25.786Z,12.21
2023-03-29T11:41:00.619Z,11.83
2023-03-29T11:43:32.357Z,12.11
2023-03-29T11:46:02.940Z,11.88
2023-03-29T11:48:32.496Z,11.50
2023-03-29T11:51:06.835Z,11.76
2023-03-29T11:53:39.503Z,11.82
2023-03-29T11:56:10.805Z,11.96
2023-03-29T11:58:40.248Z,12.04
2023-03-29T12:01:10.946Z,11.64
2023-03-29T12:03:43.124Z,11.08
2023-03-29T12:06:16.945Z,11.08
2023-03-29T12:08:46.477Z,11.08
2023-03-29T12:11:19.873Z,11.05
2023-03-29T12:13:52.576Z,10.86
2023-03-29T12:16:23.465Z,10.88
2023-03-29T12:18:54.584Z,11.14
2023-03-29T12:21:24.206Z,11.21
2023-03-29T12:23:52.755Z,11.10
2023-03-29T12:26:30.860Z,11.07
2023-03-29T12:29:30.080Z,11.16
2023-03-29T12:32:08.878Z,11.05
2023-03-29T12:34:54.792Z,11.13
2023-03-29T12:37:45.789Z,10.82
2023-03-29T12:40:40.015Z,10.77
2023-03-29T12:43:27.589Z,10.74
2023-03-29T12:46:16.760Z,10.90
2023-03-29T12:48:45.812Z,10.79
2023-03-29T12:51:14.405Z,10.76
2023-03-29T12:53:45.262Z,10.81
2023-03-29T12:56:14.915Z,10.72
2023-03-29T12:58:50.550Z,10.75
2023-03-29T13:01:29.896Z,10.79
2023-03-29T13:04:13.868Z,10.71
2023-03-29T13:07:12.373Z,10.61
2023-03-29T13:09:50.717Z,10.60
2023-03-29T13:12:27.223Z,10.72
2023-03-29T13:14:56.025Z,10.95
2023-03-29T13:17:25.703Z,11.12
2023-03-29T13:20:04.137Z,11.08
2023-03-29T13:22:36.649Z,10.96
2023-03-29T13:25:20.583Z,10.62
2023-03-29T13:27:52.768Z,10.38
2023-03-29T13:30:25.790Z,10.35
2023-03-29T13:32:59.676Z,10.40
2023-03-29T13:35:33.633Z,10.47
2023-03-29T13:38:07.894Z,10.56
2023-03-29T13:40:46.999Z,10.59
2023-03-29T13:43:23.511Z,10.48
2023-03-29T13:46:17.780Z,10.36
2023-03-29T13:49:01.151Z,10.32
2023-03-29T13:51:38.516Z,10.43
2023-03-29T13:54:13.604Z,10.62
2023-03-29T13:56:51.577Z,10.75
2023-03-29T13:59:20.995Z,10.64
2023-03-29T14:01:51.723Z,10.65
2023-03-29T14:04:24.314Z,10.84
2023-03-29T14:06:53.501Z,10.64
2023-03-29T14:09:22.305Z,10.72
2023-03-29T14:11:51.581Z,10.72
2023-03-29T14:14:22.277Z,10.85
2023-03-29T14:16:49.463Z,11.03
2023-03-29T14:19:19.353Z,11.24
2023-03-29T14:21:46.581Z,11.42
2023-03-29T14:24:18.828Z,11.41
2023-03-29T14:26:47.445Z,11.44
2023-03-29T14:29:16.282Z,11.47
2023-03-29T14:31:43.373Z,11.30
2023-03-29T14:34:13.723Z,11.31
2023-03-29T14:36:41.720Z,11.20
2023-03-29T14:39:13.153Z,10.74
2023-03-29T14:41:43.146Z,10.49
2023-03-29T14:44:11.398Z,10.37
2023-03-29T14:46:40.276Z,10.59
2023-03-29T14:49:07.732Z,10.82
2023-03-29T14:51:36.096Z,10.90
2023-03-29T14:54:03.806Z,11.18
2023-03-29T14:56:32.652Z,11.21
2023-03-29T14:59:03.608Z,11.03
2023-03-29T15:01:31.380Z,10.64
2023-03-29T15:04:05.683Z,10.41
2023-03-29T15:06:33.178Z,10.36
2023-03-29T15:09:06.562Z,10.19
2023-03-29T15:11:35.160Z,10.04
2023-03-29T15:14:04.083Z,9.90
2023-03-29T15:16:31.361Z,9.71
2023-03-29T15:18:58.882Z,9.52
2023-03-29T15:21:33.869Z,9.36
2023-03-29T15:24:01.152Z,9.11
2023-03-29T15:26:31.372Z,8.94
2023-03-29T15:29:03.196Z,8.76
2023-03-29T15:31:34.846Z,8.46
2023-03-29T15:34:06.234Z,8.20
2023-03-29T15:36:42.294Z,8.03
2023-03-29T15:39:12.143Z,7.75
2023-03-29T15:41:39.464Z,7.73
2023-03-29T15:44:07.238Z,7.56
2023-03-29T15:46:34.267Z,7.47
2023-03-29T15:49:01.614Z,7.35
2023-03-29T15:51:28.572Z,7.25
2023-03-29T15:53:56.964Z,7.14
2023-03-29T15:56:23.960Z,7.01
2023-03-29T15:58:51.018Z,6.84
2023-03-29T16:01:33.555Z,6.73
2023-03-29T16:04:00.811Z,6.67
2023-03-29T16:06:27.943Z,6.63
2023-03-29T16:08:57.436Z,6.61
2023-03-29T16:11:24.619Z,6.51
2023-03-29T16:13:51.638Z,6.49
2023-03-29T16:16:18.691Z,6.38
2023-03-29T16:18:45.841Z,6.34
2023-03-29T16:21:15.751Z,6.31
2023-03-29T16:23:43.029Z,6.33
2023-03-29T16:26:13.113Z,6.31
2023-03-29T16:28:43.064Z,6.27
2023-03-29T16:31:11.265Z,6.26
2023-03-29T16:33:38.278Z,6.26
2023-03-29T16:36:06.767Z,6.23
2023-03-29T16:38:34.190Z,6.20
2023-03-29T16:41:01.764Z,6.13
2023-03-29T16:43:30.620Z,6.09
2023-03-29T16:45:57.456Z,6.08
2023-03-29T16:48:24.498Z,6.03
2023-03-29T16:50:51.814Z,5.97
2023-03-29T16:53:19.772Z,6.00
2023-03-29T16:55:46.847Z,5.96
2023-03-29T16:58:15.543Z,5.98
2023-03-29T17:00:47.976Z,5.95
2023-03-29T17:03:15.893Z,5.98
2023-03-29T17:05:47.192Z,5.86
2023-03-29T17:08:14.267Z,5.81
2023-03-29T17:10:41.898Z,5.78
2023-03-29T17:13:08.875Z,5.83
2023-03-29T17:15:39.411Z,5.77
2023-03-29T17:18:08.282Z,5.73
2023-03-29T17:20:38.764Z,5.71
2023-03-29T17:23:05.799Z,5.61
2023-03-29T17:25:32.935Z,5.57
2023-03-29T17:27:59.915Z,5.56
2023-03-29T17:30:26.906Z,5.57
2023-03-29T17:32:53.956Z,5.53
2023-03-29T17:35:22.405Z,5.54
2023-03-29T17:37:49.626Z,5.50
2023-03-29T17:40:18.046Z,5.48
2023-03-29T17:42:48.812Z,5.49
2023-03-29T17:45:16.521Z,5.41
2023-03-29T17:47:43.648Z,5.36
2023-03-29T17:50:11.991Z,5.40
2023-03-29T17:52:40.484Z,5.42
2023-03-29T17:55:11.130Z,5.41
2023-03-29T17:57:38.997Z,5.38
2023-03-29T18:00:09.355Z,5.39
2023-03-29T18:02:37.100Z,5.37
2023-03-29T18:05:04.814Z,5.41
2023-03-29T18:07:31.988Z,5.43
2023-03-29T18:10:00.651Z,5.38
2023-03-29T18:12:28.530Z,5.38
2023-03-29T18:14:57.008Z,5.37
2023-03-29T18:17:24.416Z,5.38
2023-03-29T18:19:51.685Z,5.33
2023-03-29T18:22:19.724Z,5.32
2023-03-29T18:24:46.706Z,5.29
2023-03-29T18:27:16.024Z,5.27
2023-03-29T18:29:44.122Z,5.26
2023-03-29T18:32:11.411Z,5.28
2023-03-29T18:34:39.393Z,5.26
2023-03-29T18:37:07.485Z,5.24
2023-03-29T18:39:35.839Z,5.24
2023-03-29T18:42:03.054Z,5.23
2023-03-29T18:44:31.424Z,5.22
2023-03-29T18:46:58.445Z,5.23
2023-03-29T18:49:25.940Z,5.18
2023-03-29T18:51:54.442Z,5.21
2023-03-29T18:54:21.450Z,5.18
2023-03-29T18:56:48.466Z,5.18
2023-03-29T18:59:17.173Z,5.21
2023-03-29T19:01:45.861Z,5.27
2023-03-29T19:04:13.544Z,5.23
2023-03-29T19:06:41.501Z,5.22
2023-03-29T19:09:08.498Z,5.20
2023-03-29T19:11:36.192Z,5.16
2023-03-29T19:14:03.696Z,5.20
2023-03-29T19:16:30.800Z,5.23
2023-03-29T19:18:59.212Z,5.23
2023-03-29T19:21:27.867Z,5.26
2023-03-29T19:23:54.770Z,5.26
2023-03-29T19:26:21.847Z,5.28
2023-03-29T19:28:48.893Z,5.24
2023-03-29T19:31:15.983Z,5.23
2023-03-29T19:33:42.960Z,5.26
2023-03-29T19:36:11.327Z,5.28
2023-03-29T19:38:38.278Z,5.25
2023-03-29T19:41:07.643Z,5.29
2023-03-29T19:43:35.409Z,5.28
2023-03-29T19:46:08.040Z,5.24
2023-03-29T19:48:35.148Z,5.26
2023-03-29T19:51:03.717Z,5.26
2023-03-29T19:53:32.933Z,5.25
2023-03-29T19:56:00.098Z,5.26
2023-03-29T19:58:27.180Z,5.31
2023-03-29T20:00:58.079Z,5.28
2023-03-29T20:03:28.332Z,5.23
2023-03-29T20:05:56.404Z,5.24
2023-03-29T20:08:24.819Z,5.22
2023-03-29T20:10:58.585Z,5.16
2023-03-29T20:13:37.465Z,5.26
2023-03-29T20:16:06.885Z,5.24
2023-03-29T20:18:34.259Z,5.30
2023-03-29T20:21:02.144Z,5.32
2023-03-29T20:23:29.976Z,5.32
2023-03-29T20:25:58.488Z,5.43
2023-03-29T20:28:25.494Z,5.45
2023-03-29T20:30:52.974Z,5.43
2023-03-29T20:33:20.810Z,5.44
2023-03-29T20:35:48.760Z,5.39
2023-03-29T20:38:16.196Z,5.39
2023-03-29T20:40:43.443Z,5.39
2023-03-29T20:43:13.584Z,5.39
2023-03-29T20:45:52.773Z,5.39
2023-03-29T20:48:23.203Z,5.39
2023-03-29T20:50:50.930Z,5.37
2023-03-29T20:53:18.481Z,5.39
2023-03-29T20:55:45.651Z,5.42
2023-03-29T20:58:15.876Z,5.42
2023-03-29T21:00:43.701Z,5.44
2023-03-29T21:03:11.193Z,5.44
2023-03-29T21:05:39.065Z,5.47
2023-03-29T21:08:06.290Z,5.49
2023-03-29T21:10:33.394Z,5.47
2023-03-29T21:13:02.826Z,5.44
2023-03-29T21:15:31.944Z,5.44
2023-03-29T21:17:59.235Z,5.48
2023-03-29T21:20:27.714Z,5.61
2023-03-29T21:22:54.754Z,5.70
2023-03-29T21:25:21.752Z,5.62
2023-03-29T21:27:49.224Z,5.59
2023-03-29T21:30:16.618Z,5.60
2023-03-29T21:32:45.042Z,5.51
2023-03-29T21:35:12.578Z,5.51
2023-03-29T21:37:39.686Z,5.53
2023-03-29T21:40:09.267Z,5.55
2023-03-29T21:42:36.715Z,5.58
2023-03-29T21:45:04.632Z,5.54
2023-03-29T21:47:31.733Z,5.54
2023-03-29T21:50:00.124Z,5.54
2023-03-29T21:52:27.454Z,5.50
2023-03-29T21:54:54.404Z,5.49
2023-03-29T21:57:21.481Z,5.48
2023-03-29T21:59:48.510Z,5.46
2023-03-29T22:02:15.535Z,5.50
2023-03-29T22:04:42.657Z,5.50
2023-03-29T22:07:11.061Z,5.53
2023-03-29T22:09:41.725Z,5.55
2023-03-29T22:12:09.955Z,5.50
2023-03-29T22:14:37.328Z,5.54
2023-03-29T22:17:08.012Z,5.47
2023-03-29T22:19:39.251Z,5.47
2023-03-29T22:22:07.313Z,5.49
2023-03-29T22:24:35.708Z,5.47
2023-03-29T22:27:03.893Z,5.51
2023-03-29T22:29:31.075Z,5.48
2023-03-29T22:31:58.077Z,5.49
2023-03-29T22:34:25.138Z,5.51
2023-03-29T22:36:52.102Z,5.49
2023-03-29T22:39:19.104Z,5.50
2023-03-29T22:41:47.518Z,5.51
2023-03-29T22:44:14.568Z,5.55
2023-03-29T22:46:41.553Z,5.52
2023-03-29T22:49:08.551Z,5.51
2023-03-29T22:51:35.922Z,5.55
2023-03-29T22:54:03.046Z,5.51
2023-03-29T22:56:30.000Z,5.58
2023-03-29T22:58:58.407Z,5.58
2023-03-29T23:01:25.683Z,5.56
2023-03-29T23:03:52.785Z,5.54
2023-03-29T23:06:19.927Z,5.51
2023-03-29T23:08:47.119Z,5.51
2023-03-29T23:11:14.251Z,5.51
2023-03-29T23:13:41.265Z,5.47
2023-03-29T23:16:10.085Z,5.43
2023-03-29T23:18:37.726Z,5.41
2023-03-29T23:21:06.072Z,5.38
2023-03-29T23:23:33.800Z,5.32
2023-03-29T23:26:01.700Z,5.32
2023-03-29T23:28:30.739Z,5.34
2023-03-29T23:31:00.561Z,5.39
2023-03-29T23:33:36.361Z,5.38
2023-03-29T23:36:05.809Z,5.44
2023-03-29T23:38:34.320Z,5.39
2023-03-29T23:41:03.575Z,5.38
2023-03-29T23:43:32.921Z,5.41
2023-03-29T23:46:01.692Z,5.37
2023-03-29T23:48:30.298Z,5.34
2023-03-29T23:50:57.427Z,5.35
2023-03-29T23:53:25.471Z,5.39
2023-03-29T23:55:56.168Z,5.38
2023-03-29T23:58:23.145Z,5.41
